createdAt,value
2022-07-27T00:01:39.914Z,16.90
2022-07-27T00:04:07.370Z,16.74
2022-07-27T00:06:33.993Z,16.58
2022-07-27T00:09:00.487Z,16.73
2022-07-27T00:11:26.880Z,17.12
2022-07-27T00:13:53.296Z,17.09
2022-07-27T00:16:19.938Z,17.13
2022-07-27T00:18:46.395Z,17.31
2022-07-27T00:21:12.907Z,16.94
2022-07-27T00:23:39.606Z,16.64
2022-07-27T00:26:06.112Z,16.47
2022-07-27T00:28:32.599Z,16.42
2022-07-27T00:30:59.098Z,16.52
2022-07-27T00:33:25.565Z,16.46
2022-07-27T00:35:51.967Z,16.46
2022-07-27T00:38:18.916Z,16.62
2022-07-27T00:40:45.355Z,16.40
2022-07-27T00:43:12.044Z,16.20
2022-07-27T00:45:38.920Z,16.19
2022-07-27T00:48:05.769Z,16.05
2022-07-27T00:50:32.358Z,16.04
2022-07-27T00:52:59.132Z,16.21
2022-07-27T00:55:27.485Z,16.09
2022-07-27T00:57:58.863Z,16.10
2022-07-27T01:00:27.352Z,15.93
2022-07-27T01:02:54.170Z,16.13
2022-07-27T01:05:20.755Z,16.14
2022-07-27T01:07:49.011Z,16.08
2022-07-27T01:10:16.615Z,15.92
2022-07-27T01:12:45.636Z,15.91
2022-07-27T01:15:12.262Z,15.76
2022-07-27T01:17:38.909Z,15.90
2022-07-27T01:20:05.802Z,15.66
2022-07-27T01:22:32.268Z,15.65
2022-07-27T01:24:58.679Z,15.57
2022-07-27T01:27:25.643Z,15.52
2022-07-27T01:29:52.131Z,15.51
2022-07-27T01:32:18.585Z,15.69
2022-07-27T01:34:45.054Z,15.35
2022-07-27T01:37:13.549Z,15.29
2022-07-27T01:39:40.058Z,15.20
2022-07-27T01:42:06.613Z,15.13
2022-07-27T01:44:33.071Z,15.31
2022-07-27T01:46:59.505Z,15.37
2022-07-27T01:49:26.106Z,15.63
2022-07-27T01:51:52.592Z,15.45
2022-07-27T01:54:19.185Z,15.38
2022-07-27T01:56:45.911Z,14.88
2022-07-27T01:59:16.621Z,14.92
2022-07-27T02:01:44.927Z,14.95
2022-07-27T02:04:11.573Z,14.91
2022-07-27T02:06:37.990Z,14.94
2022-07-27T02:09:04.424Z,14.89
2022-07-27T02:11:49.455Z,14.70
2022-07-27T02:14:16.453Z,14.61
2022-07-27T02:16:42.999Z,14.66
2022-07-27T02:19:11.022Z,14.74
2022-07-27T02:21:37.864Z,14.69
2022-07-27T02:24:04.549Z,14.50
2022-07-27T02:26:31.022Z,14.71
2022-07-27T02:28:57.520Z,14.54
2022-07-27T02:31:24.066Z,14.72
2022-07-27T02:33:50.470Z,14.53
2022-07-27T02:36:16.881Z,14.45
2022-07-27T02:38:43.464Z,14.88
2022-07-27T02:41:09.876Z,14.85
2022-07-27T02:43:36.277Z,14.82
2022-07-27T02:46:06.054Z,14.70
2022-07-27T02:48:33.591Z,14.39
2022-07-27T02:51:01.820Z,14.84
2022-07-27T02:53:29.406Z,14.85
2022-07-27T02:55:56.250Z,14.72
2022-07-27T02:58:23.336Z,14.87
2022-07-27T03:00:52.518Z,14.86
2022-07-27T03:03:21.325Z,14.77
2022-07-27T03:05:48.690Z,14.96
2022-07-27T03:08:15.223Z,15.03
2022-07-27T03:10:41.941Z,14.98
2022-07-27T03:13:15.325Z,15.22
2022-07-27T03:15:41.800Z,15.35
2022-07-27T03:18:08.247Z,15.23
2022-07-27T03:20:34.713Z,15.08
2022-07-27T03:23:01.160Z,15.33
2022-07-27T03:25:27.691Z,15.12
2022-07-27T03:27:54.150Z,15.24
2022-07-27T03:30:20.922Z,15.19
2022-07-27T03:32:48.339Z,15.13
2022-07-27T03:35:15.491Z,15.20
2022-07-27T03:37:42.421Z,15.17
2022-07-27T03:40:10.751Z,15.37
2022-07-27T03:42:37.793Z,15.31
2022-07-27T03:45:05.010Z,15.27
2022-07-27T03:47:31.462Z,15.23
2022-07-27T03:49:57.871Z,15.11
2022-07-27T03:52:24.282Z,15.23
2022-07-27T03:54:50.815Z,15.13
2022-07-27T03:57:17.286Z,15.24
2022-07-27T03:59:43.678Z,15.14
2022-07-27T04:02:10.158Z,15.33
2022-07-27T04:04:36.752Z,15.26
2022-07-27T04:07:03.274Z,15.22
2022-07-27T04:09:29.708Z,15.33
2022-07-27T04:11:57.864Z,15.30
2022-07-27T04:14:26.009Z,15.27
2022-07-27T04:16:52.492Z,15.33
2022-07-27T04:19:19.019Z,15.41
2022-07-27T04:21:45.539Z,15.24
2022-07-27T04:24:12.003Z,15.26
2022-07-27T04:26:38.435Z,15.11
2022-07-27T04:29:04.849Z,14.97
2022-07-27T04:31:31.681Z,14.93
2022-07-27T04:33:58.239Z,14.98
2022-07-27T04:36:33.198Z,15.08
2022-07-27T04:39:01.087Z,15.31
2022-07-27T04:41:30.291Z,15.13
2022-07-27T04:43:57.384Z,15.12
2022-07-27T04:46:25.547Z,15.06
2022-07-27T04:48:52.027Z,14.93
2022-07-27T04:51:19.060Z,15.08
2022-07-27T04:53:53.675Z,15.10
2022-07-27T04:56:25.367Z,15.08
2022-07-27T04:58:51.760Z,15.35
2022-07-27T05:01:18.248Z,15.26
2022-07-27T05:03:44.752Z,15.27
2022-07-27T05:06:11.242Z,15.21
2022-07-27T05:08:37.813Z,15.54
2022-07-27T05:11:04.282Z,15.54
2022-07-27T05:13:30.692Z,15.67
2022-07-27T05:15:57.111Z,15.85
2022-07-27T05:18:25.503Z,15.85
2022-07-27T05:20:52.070Z,15.97
2022-07-27T05:23:18.502Z,15.97
2022-07-27T05:25:44.898Z,15.95
2022-07-27T05:28:12.396Z,15.86
2022-07-27T05:30:38.802Z,15.95
2022-07-27T05:33:12.552Z,16.00
2022-07-27T05:35:38.982Z,16.26
2022-07-27T05:38:05.410Z,16.14
2022-07-27T05:40:31.814Z,16.35
2022-07-27T05:42:58.655Z,16.52
2022-07-27T05:45:26.256Z,16.66
2022-07-27T05:48:01.931Z,16.86
2022-07-27T05:50:28.342Z,16.79
2022-07-27T05:52:54.873Z,16.96
2022-07-27T05:55:21.855Z,16.90
2022-07-27T05:57:48.312Z,16.70
2022-07-27T06:00:14.852Z,17.05
2022-07-27T06:02:41.420Z,16.97
2022-07-27T06:05:14.821Z,17.19
2022-07-27T06:08:00.814Z,17.37
2022-07-27T06:10:29.607Z,17.53
2022-07-27T06:12:56.261Z,17.40
2022-07-27T06:15:23.846Z,17.68
2022-07-27T06:17:52.699Z,17.56
2022-07-27T06:20:20.245Z,17.46
2022-07-27T06:22:52.346Z,17.69
2022-07-27T06:25:20.610Z,17.48
2022-07-27T06:27:47.096Z,17.30
2022-07-27T06:30:18.752Z,17.60
2022-07-27T06:32:47.371Z,17.25
2022-07-27T06:35:14.001Z,17.25
2022-07-27T06:37:52.591Z,17.22
2022-07-27T06:40:20.127Z,17.36
2022-07-27T06:42:46.565Z,17.34
2022-07-27T06:45:13.114Z,17.39
2022-07-27T06:47:49.714Z,17.34
2022-07-27T06:50:18.473Z,17.35
2022-07-27T06:52:44.994Z,17.69
2022-07-27T06:55:11.420Z,17.13
2022-07-27T06:57:37.891Z,17.81
2022-07-27T07:00:05.640Z,17.77
2022-07-27T07:02:32.541Z,17.83
2022-07-27T07:04:59.181Z,17.85
2022-07-27T07:07:25.656Z,17.77
2022-07-27T07:09:52.068Z,18.03
2022-07-27T07:12:18.992Z,18.41
2022-07-27T07:14:45.785Z,18.52
2022-07-27T07:17:12.221Z,18.57
2022-07-27T07:19:38.648Z,18.52
2022-07-27T07:22:05.177Z,18.74
2022-07-27T07:24:31.710Z,18.79
2022-07-27T07:26:58.219Z,18.96
2022-07-27T07:29:24.761Z,18.93
2022-07-27T07:31:51.224Z,18.90
2022-07-27T07:34:17.769Z,19.10
2022-07-27T07:36:46.127Z,18.80
2022-07-27T07:39:13.001Z,18.96
2022-07-27T07:41:39.889Z,18.29
2022-07-27T07:44:07.183Z,17.97
2022-07-27T07:46:34.570Z,18.34
2022-07-27T07:49:01.167Z,18.36
2022-07-27T07:51:27.753Z,18.52
2022-07-27T07:53:54.300Z,18.52
2022-07-27T07:56:20.719Z,18.76
2022-07-27T07:58:48.803Z,19.24
2022-07-27T08:01:15.393Z,18.68
2022-07-27T08:03:44.093Z,19.16
2022-07-27T08:06:13.880Z,19.71
2022-07-27T08:08:40.537Z,19.30
2022-07-27T08:11:06.957Z,18.84
2022-07-27T08:13:33.599Z,18.70
2022-07-27T08:16:00.022Z,19.08
2022-07-27T08:18:26.485Z,19.14
2022-07-27T08:20:52.998Z,19.06
2022-07-27T08:23:19.642Z,18.56
2022-07-27T08:25:46.630Z,18.93
2022-07-27T08:28:13.170Z,18.93
2022-07-27T08:30:39.738Z,19.36
2022-07-27T08:33:06.377Z,19.06
2022-07-27T08:35:34.703Z,18.92
2022-07-27T08:38:02.653Z,20.03
2022-07-27T08:40:40.175Z,20.27
2022-07-27T08:43:08.785Z,19.92
2022-07-27T08:45:37.206Z,20.08
2022-07-27T08:48:04.404Z,19.68
2022-07-27T08:50:31.206Z,19.47
2022-07-27T08:53:10.006Z,20.33
2022-07-27T08:55:39.010Z,20.33
2022-07-27T08:58:07.179Z,19.22
2022-07-27T09:00:35.053Z,20.40
2022-07-27T09:03:03.081Z,21.05
2022-07-27T09:05:37.468Z,21.00
2022-07-27T09:08:24.700Z,21.25
2022-07-27T09:10:54.617Z,21.05
2022-07-27T09:13:31.658Z,21.43
2022-07-27T09:16:17.973Z,21.41
2022-07-27T09:18:45.249Z,21.71
2022-07-27T09:21:11.609Z,22.04
2022-07-27T09:23:49.176Z,22.13
2022-07-27T09:26:32.403Z,22.31
2022-07-27T09:29:12.210Z,22.44
2022-07-27T09:31:44.951Z,22.65
2022-07-27T09:34:13.834Z,22.74
2022-07-27T09:36:54.622Z,23.04
2022-07-27T09:39:22.717Z,23.10
2022-07-27T09:41:55.362Z,22.66
2022-07-27T09:44:53.419Z,22.56
2022-07-27T09:47:26.760Z,22.76
2022-07-27T09:50:18.590Z,22.85
2022-07-27T09:52:45.683Z,22.88
2022-07-27T09:55:12.134Z,23.22
2022-07-27T09:57:56.220Z,23.57
2022-07-27T10:00:24.021Z,24.02
2022-07-27T10:02:52.488Z,24.39
2022-07-27T10:05:21.471Z,24.16
2022-07-27T10:07:48.805Z,24.31
2022-07-27T10:12:50.521Z,24.28
2022-07-27T10:15:20.543Z,24.31
2022-07-27T10:17:55.180Z,24.54
2022-07-27T10:20:22.078Z,24.75
2022-07-27T10:22:56.444Z,24.79
2022-07-27T10:25:25.452Z,24.60
2022-07-27T10:28:16.410Z,24.79
2022-07-27T10:30:43.634Z,23.95
2022-07-27T10:33:38.298Z,24.80
2022-07-27T10:36:05.144Z,24.52
2022-07-27T10:38:48.630Z,24.33
2022-07-27T10:41:31.253Z,24.39
2022-07-27T10:44:18.917Z,24.37
2022-07-27T10:46:48.386Z,24.53
2022-07-27T10:49:29.507Z,24.22
2022-07-27T10:51:58.133Z,24.21
2022-07-27T10:54:35.259Z,24.48
2022-07-27T10:57:04.292Z,24.60
2022-07-27T11:00:06.966Z,24.74
2022-07-27T11:02:39.391Z,24.66
2022-07-27T11:05:06.140Z,24.73
2022-07-27T11:07:44.333Z,24.83
2022-07-27T11:10:12.904Z,24.95
2022-07-27T11:12:41.285Z,25.10
2022-07-27T11:15:07.916Z,25.06
2022-07-27T11:17:58.488Z,24.94
2022-07-27T11:20:24.161Z,25.03
2022-07-27T11:23:40.806Z,24.54
2022-07-27T11:25:37.335Z,24.68
2022-07-27T11:28:07.494Z,24.35
2022-07-27T11:30:34.059Z,24.29
2022-07-27T11:33:04.662Z,24.40
2022-07-27T11:35:31.172Z,24.70
2022-07-27T11:38:07.612Z,24.77
2022-07-27T11:41:06.640Z,25.24
2022-07-27T11:43:39.490Z,25.57
2022-07-27T11:46:16.024Z,25.45
2022-07-27T11:49:17.725Z,25.35
2022-07-27T11:51:47.968Z,25.04
2022-07-27T11:54:21.786Z,24.65
2022-07-27T11:56:50.866Z,24.70
2022-07-27T11:59:28.960Z,25.07
2022-07-27T12:01:56.679Z,24.93
2022-07-27T12:04:27.134Z,24.81
2022-07-27T12:06:58.734Z,25.08
2022-07-27T12:09:25.865Z,24.84
2022-07-27T12:12:01.647Z,25.03
2022-07-27T12:14:29.347Z,24.75
2022-07-27T12:17:14.793Z,24.93
2022-07-27T12:19:41.983Z,24.99
2022-07-27T12:22:08.756Z,24.69
2022-07-27T12:24:41.267Z,24.84
2022-07-27T12:27:13.429Z,24.53
2022-07-27T12:30:06.081Z,24.45
2022-07-27T12:32:35.976Z,24.39
2022-07-27T12:35:16.137Z,24.33
2022-07-27T12:37:43.471Z,24.43
2022-07-27T12:40:15.806Z,24.13
2022-07-27T12:42:42.347Z,24.07
2022-07-27T12:45:14.681Z,24.27
2022-07-27T12:47:41.614Z,24.39
2022-07-27T12:50:17.687Z,24.07
2022-07-27T12:52:49.137Z,24.58
2022-07-27T12:55:16.046Z,24.93
2022-07-27T12:57:55.374Z,25.34
2022-07-27T13:00:32.733Z,25.08
2022-07-27T13:03:01.380Z,24.83
2022-07-27T13:05:27.933Z,25.08
2022-07-27T13:07:54.499Z,24.94
2022-07-27T13:10:21.075Z,24.88
2022-07-27T13:12:48.584Z,24.39
2022-07-27T13:15:16.405Z,24.35
2022-07-27T13:17:44.551Z,25.02
2022-07-27T13:20:12.517Z,25.43
2022-07-27T13:22:40.480Z,25.83
2022-07-27T13:25:16.046Z,25.88
2022-07-27T13:27:45.080Z,25.89
2022-07-27T13:30:13.363Z,25.85
2022-07-27T13:32:41.484Z,25.58
2022-07-27T13:35:12.220Z,25.37
2022-07-27T13:37:39.693Z,25.00
2022-07-27T13:40:07.783Z,24.40
2022-07-27T13:42:34.378Z,24.60
2022-07-27T13:45:08.765Z,24.37
2022-07-27T13:47:36.608Z,24.51
2022-07-27T13:50:04.243Z,24.31
2022-07-27T13:52:30.736Z,24.33
2022-07-27T13:54:57.200Z,24.41
2022-07-27T13:57:23.719Z,24.55
2022-07-27T13:59:50.324Z,24.65
2022-07-27T14:02:22.837Z,24.67
2022-07-27T14:04:52.429Z,24.43
2022-07-27T14:07:18.853Z,24.40
2022-07-27T14:10:04.110Z,24.20
2022-07-27T14:12:30.576Z,24.35
2022-07-27T14:14:57.097Z,24.60
2022-07-27T14:17:23.569Z,24.75
2022-07-27T14:19:51.032Z,24.57
2022-07-27T14:22:18.517Z,24.59
2022-07-27T14:24:44.966Z,24.46
2022-07-27T14:27:11.530Z,24.80
2022-07-27T14:29:38.213Z,25.07
2022-07-27T14:32:05.624Z,24.92
2022-07-27T14:34:32.143Z,24.73
2022-07-27T14:36:58.628Z,24.40
2022-07-27T14:39:25.121Z,24.68
2022-07-27T14:41:51.599Z,24.93
2022-07-27T14:44:18.973Z,25.24
2022-07-27T14:46:47.022Z,24.93
2022-07-27T14:49:17.377Z,24.77
2022-07-27T14:51:44.013Z,24.90
2022-07-27T14:54:10.660Z,25.37
2022-07-27T14:56:37.227Z,25.61
2022-07-27T14:59:04.511Z,25.76
2022-07-27T15:01:31.067Z,25.17
2022-07-27T15:03:57.811Z,25.14
2022-07-27T15:06:24.317Z,25.34
2022-07-27T15:08:50.736Z,25.20
2022-07-27T15:11:17.192Z,25.25
2022-07-27T15:13:43.619Z,25.00
2022-07-27T15:16:11.365Z,25.13
2022-07-27T15:18:39.187Z,24.96
2022-07-27T15:21:12.860Z,24.61
2022-07-27T15:23:41.334Z,24.39
2022-07-27T15:26:07.777Z,24.12
2022-07-27T15:28:34.286Z,23.97
2022-07-27T15:31:00.777Z,23.64
2022-07-27T15:33:28.262Z,23.63
2022-07-27T15:35:54.847Z,23.67
2022-07-27T15:38:21.404Z,23.83
2022-07-27T15:40:48.161Z,23.75
2022-07-27T15:43:17.019Z,23.52
2022-07-27T15:45:50.700Z,23.71
2022-07-27T15:48:19.593Z,23.76
2022-07-27T15:50:49.452Z,23.81
2022-07-27T15:53:17.314Z,24.07
2022-07-27T15:55:44.739Z,23.99
2022-07-27T15:58:11.775Z,24.29
2022-07-27T16:00:41.119Z,24.31
2022-07-27T16:03:14.729Z,24.43
2022-07-27T16:05:42.503Z,24.48
2022-07-27T16:08:09.962Z,24.64
2022-07-27T16:10:37.921Z,24.89
2022-07-27T16:13:05.588Z,25.08
2022-07-27T16:15:51.278Z,24.86
2022-07-27T16:18:17.884Z,24.20
2022-07-27T16:20:44.334Z,24.03
2022-07-27T16:23:17.676Z,24.16
2022-07-27T16:26:04.051Z,24.05
2022-07-27T16:28:33.101Z,23.75
2022-07-27T16:30:59.657Z,23.79
2022-07-27T16:33:26.341Z,23.86
2022-07-27T16:35:57.924Z,23.83
2022-07-27T16:38:25.497Z,23.61
2022-07-27T16:40:51.955Z,23.79
2022-07-27T16:43:18.415Z,23.75
2022-07-27T16:45:45.957Z,23.65
2022-07-27T16:48:12.843Z,23.75
2022-07-27T16:50:40.416Z,23.76
2022-07-27T16:53:07.300Z,23.83
2022-07-27T16:55:33.765Z,23.82
2022-07-27T16:58:00.207Z,23.69
2022-07-27T17:00:26.806Z,23.77
2022-07-27T17:02:53.287Z,23.74
2022-07-27T17:05:20.811Z,23.55
2022-07-27T17:07:50.274Z,23.28
2022-07-27T17:10:27.172Z,23.36
2022-07-27T17:12:54.439Z,23.36
2022-07-27T17:15:22.393Z,23.32
2022-07-27T17:17:48.899Z,23.61
2022-07-27T17:20:15.820Z,23.69
2022-07-27T17:22:54.324Z,23.57
2022-07-27T17:25:21.691Z,23.71
2022-07-27T17:27:48.667Z,23.49
2022-07-27T17:30:16.122Z,23.72
2022-07-27T17:32:42.914Z,23.56
2022-07-27T17:35:09.581Z,23.77
2022-07-27T17:38:03.322Z,23.49
2022-07-27T17:40:25.537Z,23.64
2022-07-27T17:42:52.250Z,23.42
2022-07-27T17:45:18.775Z,23.80
2022-07-27T17:47:45.244Z,23.57
2022-07-27T17:50:11.805Z,23.69
2022-07-27T17:52:38.615Z,23.64
2022-07-27T17:55:05.791Z,23.71
2022-07-27T17:57:32.234Z,23.58
2022-07-27T17:59:58.707Z,23.25
2022-07-27T18:02:26.360Z,23.01
2022-07-27T18:04:52.923Z,23.15
2022-07-27T18:07:19.407Z,22.67
2022-07-27T18:09:45.957Z,22.57
2022-07-27T18:12:12.523Z,22.65
2022-07-27T18:14:59.082Z,22.60
2022-07-27T18:17:25.564Z,21.61
2022-07-27T18:19:52.030Z,21.83
2022-07-27T18:22:21.561Z,22.13
2022-07-27T18:24:47.969Z,21.82
2022-07-27T18:27:16.711Z,21.68
2022-07-27T18:29:44.039Z,21.49
2022-07-27T18:32:10.524Z,21.32
2022-07-27T18:34:37.052Z,21.14
2022-07-27T18:37:03.481Z,20.91
2022-07-27T18:39:34.240Z,20.91
2022-07-27T18:42:03.618Z,20.67
2022-07-27T18:44:35.369Z,20.53
2022-07-27T18:47:05.420Z,20.36
2022-07-27T18:49:31.884Z,20.25
2022-07-27T18:51:58.473Z,20.04
2022-07-27T18:54:24.896Z,19.91
2022-07-27T18:56:52.059Z,19.65
2022-07-27T18:59:24.485Z,19.62
2022-07-27T19:01:51.236Z,19.54
2022-07-27T19:04:17.750Z,19.20
2022-07-27T19:06:45.034Z,19.28
2022-07-27T19:09:13.117Z,18.94
2022-07-27T19:11:39.863Z,18.81
2022-07-27T19:14:06.643Z,18.67
2022-07-27T19:16:34.376Z,18.66
2022-07-27T19:19:01.604Z,18.50
2022-07-27T19:21:28.055Z,18.34
2022-07-27T19:23:54.951Z,18.36
2022-07-27T19:26:21.408Z,18.29
2022-07-27T19:28:47.984Z,18.28
2022-07-27T19:31:22.308Z,18.07
2022-07-27T19:33:52.255Z,17.82
2022-07-27T19:49:41.482Z,17.34
2022-07-27T19:52:08.964Z,17.27
2022-07-27T19:54:35.884Z,17.22
2022-07-27T19:57:02.346Z,17.29
2022-07-27T19:59:28.860Z,17.24
2022-07-27T20:02:16.697Z,17.14
2022-07-27T20:04:43.515Z,17.04
2022-07-27T20:07:10.039Z,16.92
2022-07-27T20:09:37.599Z,16.86
2022-07-27T20:12:04.855Z,16.56
2022-07-27T20:14:32.510Z,16.75
2022-07-27T20:17:01.518Z,16.56
2022-07-27T20:19:29.838Z,16.58
2022-07-27T20:21:57.298Z,16.48
2022-07-27T20:24:23.753Z,16.57
2022-07-27T20:26:50.188Z,16.66
2022-07-27T20:29:16.687Z,16.82
2022-07-27T20:31:43.158Z,16.54
2022-07-27T20:34:09.591Z,16.41
2022-07-27T20:36:36.030Z,16.48
2022-07-27T20:39:04.815Z,16.58
2022-07-27T20:41:34.007Z,16.67
2022-07-27T20:44:00.506Z,16.49
2022-07-27T20:46:27.008Z,16.42
2022-07-27T20:48:53.564Z,16.27
2022-07-27T20:51:20.053Z,16.36
2022-07-27T20:53:46.492Z,16.44
2022-07-27T20:56:12.953Z,16.76
2022-07-27T20:58:39.377Z,16.52
2022-07-27T21:01:09.008Z,16.43
2022-07-27T21:03:35.536Z,16.51
2022-07-27T21:06:02.975Z,16.89
2022-07-27T21:08:29.596Z,16.24
2022-07-27T21:10:56.043Z,16.44
2022-07-27T21:13:22.580Z,16.76
2022-07-27T21:15:49.072Z,16.41
2022-07-27T21:18:15.514Z,16.47
2022-07-27T21:20:42.001Z,16.20
2022-07-27T21:23:27.129Z,16.21
2022-07-27T21:26:02.694Z,16.15
2022-07-27T21:28:29.607Z,16.14
2022-07-27T21:30:57.229Z,16.27
2022-07-27T21:33:23.687Z,16.37
2022-07-27T21:35:51.117Z,16.02
2022-07-27T21:38:17.534Z,15.81
2022-07-27T21:40:43.989Z,15.64
2022-07-27T21:43:10.446Z,15.78
2022-07-27T21:45:36.983Z,15.67
2022-07-27T21:48:03.689Z,16.07
2022-07-27T21:50:30.288Z,15.68
2022-07-27T21:52:56.736Z,16.05
2022-07-27T21:55:23.581Z,15.64
2022-07-27T21:57:51.119Z,15.72
2022-07-27T22:00:25.728Z,15.69
2022-07-27T22:02:52.214Z,15.63
2022-07-27T22:05:19.261Z,15.69
2022-07-27T22:07:45.734Z,15.41
2022-07-27T22:10:19.156Z,15.50
2022-07-27T22:12:46.080Z,15.53
2022-07-27T22:15:12.610Z,15.50
2022-07-27T22:17:46.093Z,15.52
2022-07-27T22:20:18.328Z,15.57
2022-07-27T22:22:45.079Z,15.41
2022-07-27T22:25:11.671Z,15.22
2022-07-27T22:27:38.246Z,15.52
2022-07-27T22:30:05.610Z,15.30
2022-07-27T22:32:32.064Z,15.07
2022-07-27T22:34:58.566Z,15.25
2022-07-27T22:37:25.583Z,15.11
2022-07-27T22:39:52.219Z,15.20
2022-07-27T22:42:18.928Z,15.01
2022-07-27T22:44:45.391Z,15.15
2022-07-27T22:47:12.134Z,15.13
2022-07-27T22:49:38.560Z,15.26
2022-07-27T22:52:05.412Z,15.15
2022-07-27T22:54:36.975Z,15.37
2022-07-27T22:57:07.365Z,15.33
2022-07-27T22:59:34.904Z,15.22
2022-07-27T23:02:02.008Z,15.13
2022-07-27T23:04:28.455Z,14.91
2022-07-27T23:06:55.122Z,15.20
2022-07-27T23:09:23.062Z,15.04
2022-07-27T23:11:50.322Z,15.14
2022-07-27T23:14:17.087Z,15.15
2022-07-27T23:16:44.310Z,15.02
2022-07-27T23:19:10.959Z,15.02
2022-07-27T23:21:39.416Z,15.01
2022-07-27T23:24:06.952Z,15.09
2022-07-27T23:26:33.618Z,14.85
2022-07-27T23:29:00.437Z,15.14
2022-07-27T23:31:27.045Z,15.07
2022-07-27T23:33:53.534Z,14.92
2022-07-27T23:36:19.964Z,14.90
2022-07-27T23:38:46.377Z,14.94
2022-07-27T23:41:12.870Z,14.98
2022-07-27T23:43:39.275Z,15.12
2022-07-27T23:46:06.607Z,15.00
2022-07-27T23:48:33.090Z,15.31
2022-07-27T23:50:59.601Z,15.57
2022-07-27T23:53:27.127Z,15.31
2022-07-27T23:55:53.611Z,15.26
2022-07-27T23:58:20.270Z,15.36
